Jack Northrop Field Hawthorne Municipal Airport
KHHR : now visible

Airfield :











YOU CAN JOIN US ON...

 
LOGIN :

Register | Disclaimer

   EN    FR    IT 

 









Legend :    VFR   Marginal VFR   IFR   Intensive IFR   Very Intensive IFR
Visi :
Ceiling :
>= 8 km
>= 3000ft
5 to 8 km
1000 to 3000 ft
1500m to 5 km
500 to 1000 ft
800 to 1500m
200 to 500 ft
< 800m
< 200 ft
Symbols :   Thunderstorms  Fog  Heavy snow  Heavy precipitations  Wind > 20 kt







- Airport Elevation : 66 ft


KHHR - Jack Northrop Field Hawthorne Municipal

CURRENT METAR :
  • 221753Z 25010KT 10SM CLR 18/06 A2973 RMK AO2 SLP066 T01780061 10183 20133 56001

EXPIRED METARs :
  • 221653Z 24010KT 10SM CLR 17/06 A2973 RMK AO2 SLP067 T01670061
  • 221553Z VRB04KT 10SM CLR 17/06 A2973 RMK AO2 SLP067 T01670061

TAF N/A
KZLA FIR / North America



MET'MAP, your aeronautical weather chart ! - Copyright ORBIFLY December 2007 - Disclaimer

ORBIFLY MET'MAP TEAM :

Programming & Development : Alexandra Zaïnal
Concept & Development : Baudouin d'Aumeries
Co-Development & Prog : Marc-Olivier Méhu
Technical & hardware support : Manuel Goepfert

Contact : metmap@orbifly.com




SOURCES & CREDITS :

   NOAA       Earth
Advisory